SDM7 ULLI-OMDB
Flight info
| Callsign | SDM7 |
|---|---|
| Flight time | 4h 50m |
| Altitude | 41000 |
| Route | SUGIN1B SUGIN DCT GUBLI DCT DITOT DCT BOKRU DCT ODATI DCT MONAB DCT BUMAR/N0496F410 DCT ULDUS DCT VUTEB VUTE4C |
| Aircraft | B748/H-SDE3FGHIM1M2RWXY/LB1 |
Departure
| Time | 2026-05-05 07:19 |
|---|---|
| Airport | Pulkovo Airport (ULLI) |
Arrival
| Time | 2026-05-05 12:09 |
|---|---|
| Airport | Dubai International Airport (OMDB) |
| Time | Latitude | Longitude | Altitude | Speed | Heading |
|---|---|---|---|---|---|
| 2026-05-05 07:01 | 59.79983 | 30.26725 | 98 ft | 0 kts | 106° |
| 2026-05-05 07:12 | 59.79989 | 30.26687 | 93 ft | 4 kts | 111° |
| 2026-05-05 07:12 | 59.79999 | 30.26640 | 90 ft | 4 kts | 128° |
| 2026-05-05 07:12 | 59.80011 | 30.26609 | 91 ft | 4 kts | 164° |
| 2026-05-05 07:13 | 59.80020 | 30.26601 | 92 ft | 0 kts | 199° |
| 2026-05-05 07:14 | 59.79996 | 30.26585 | 92 ft | 9 kts | 198° |
| 2026-05-05 07:15 | 59.79903 | 30.26529 | 92 ft | 19 kts | 197° |
| 2026-05-05 07:15 | 59.79776 | 30.26453 | 91 ft | 18 kts | 196° |
| 2026-05-05 07:15 | 59.79662 | 30.26382 | 91 ft | 17 kts | 198° |
| 2026-05-05 07:15 | 59.79590 | 30.26341 | 91 ft | 15 kts | 196° |
| 2026-05-05 07:16 | 59.79517 | 30.26323 | 93 ft | 1 kts | 154° |
| 2026-05-05 07:16 | 59.79508 | 30.26343 | 94 ft | 6 kts | 133° |
| 2026-05-05 07:16 | 59.79458 | 30.26415 | 93 ft | 2 kts | 175° |
| 2026-05-05 07:16 | 59.79440 | 30.26409 | 94 ft | 7 kts | 190° |
| 2026-05-05 07:17 | 59.79365 | 30.26373 | 90 ft | 13 kts | 199° |
| 2026-05-05 07:17 | 59.79332 | 30.26314 | 94 ft | 3 kts | 245° |
| 2026-05-05 07:17 | 59.79331 | 30.26276 | 92 ft | 3 kts | 271° |
| 2026-05-05 07:17 | 59.79334 | 30.26241 | 92 ft | 0 kts | 285° |
| 2026-05-05 07:18 | 59.79378 | 30.25942 | 93 ft | 65 kts | 285° |
| 2026-05-05 07:18 | 59.79595 | 30.24453 | 91 ft | 156 kts | 285° |
| 2026-05-05 07:18 | 59.79937 | 30.22075 | 424 ft | 190 kts | 284° |
| 2026-05-05 07:19 | 59.80331 | 30.19479 | 1048 ft | 204 kts | 283° |
| 2026-05-05 07:19 | 59.80334 | 30.16742 | 1922 ft | 196 kts | 249° |
| 2026-05-05 07:19 | 59.79565 | 30.14373 | 2563 ft | 221 kts | 224° |
| 2026-05-05 07:19 | 59.78133 | 30.12947 | 3278 ft | 245 kts | 192° |
| 2026-05-05 07:20 | 59.76394 | 30.13201 | 4810 ft | 260 kts | 167° |
| 2026-05-05 07:20 | 59.74806 | 30.15157 | 6156 ft | 281 kts | 140° |
| 2026-05-05 07:20 | 59.73545 | 30.18174 | 7369 ft | 294 kts | 132° |
| 2026-05-05 07:20 | 59.72257 | 30.21400 | 8599 ft | 302 kts | 136° |
| 2026-05-05 07:21 | 59.70811 | 30.24474 | 9833 ft | 309 kts | 142° |
| 2026-05-05 07:21 | 59.69244 | 30.27537 | 10732 ft | 329 kts | 141° |
| 2026-05-05 07:21 | 59.67574 | 30.30919 | 11395 ft | 358 kts | 139° |
| 2026-05-05 07:21 | 59.65858 | 30.34541 | 12009 ft | 385 kts | 138° |
| 2026-05-05 07:22 | 59.63990 | 30.38466 | 13166 ft | 393 kts | 139° |
| 2026-05-05 07:22 | 59.62089 | 30.42381 | 14371 ft | 400 kts | 140° |
| 2026-05-05 07:22 | 59.60132 | 30.46377 | 15460 ft | 407 kts | 140° |
| 2026-05-05 07:22 | 59.58156 | 30.50435 | 16549 ft | 414 kts | 140° |
| 2026-05-05 07:23 | 59.56145 | 30.54577 | 17640 ft | 421 kts | 140° |
| 2026-05-05 07:23 | 59.54095 | 30.58779 | 18609 ft | 428 kts | 140° |
| 2026-05-05 07:23 | 59.52014 | 30.63027 | 19578 ft | 433 kts | 140° |
| 2026-05-05 07:23 | 59.49909 | 30.67321 | 20525 ft | 438 kts | 140° |
| 2026-05-05 07:24 | 59.47780 | 30.71657 | 21440 ft | 444 kts | 140° |
| 2026-05-05 07:24 | 59.45620 | 30.76048 | 22348 ft | 449 kts | 140° |
| 2026-05-05 07:24 | 59.43437 | 30.80477 | 23233 ft | 454 kts | 140° |
| 2026-05-05 07:24 | 59.41227 | 30.84948 | 23964 ft | 458 kts | 140° |
| 2026-05-05 07:25 | 59.38993 | 30.89462 | 24648 ft | 463 kts | 140° |
| 2026-05-05 07:25 | 59.36741 | 30.94004 | 25329 ft | 468 kts | 140° |
| 2026-05-05 07:25 | 59.34459 | 30.98596 | 26010 ft | 472 kts | 140° |
| 2026-05-05 07:25 | 59.32153 | 31.03226 | 26683 ft | 477 kts | 140° |
| 2026-05-05 07:26 | 59.29824 | 31.07892 | 27362 ft | 481 kts | 140° |
| 2026-05-05 07:26 | 59.27471 | 31.12597 | 28014 ft | 486 kts | 139° |
| 2026-05-05 07:26 | 59.25094 | 31.17340 | 28675 ft | 490 kts | 139° |
| 2026-05-05 07:26 | 59.22694 | 31.22119 | 29331 ft | 495 kts | 139° |
| 2026-05-05 07:27 | 59.20269 | 31.26936 | 29946 ft | 500 kts | 139° |
| 2026-05-05 07:27 | 59.17823 | 31.31787 | 30509 ft | 503 kts | 139° |
| 2026-05-05 07:27 | 59.15357 | 31.36665 | 31063 ft | 507 kts | 139° |
| 2026-05-05 07:27 | 59.12872 | 31.41571 | 31612 ft | 511 kts | 139° |
| 2026-05-05 07:28 | 59.10369 | 31.46500 | 32132 ft | 514 kts | 139° |
| 2026-05-05 07:28 | 59.07843 | 31.51465 | 32655 ft | 518 kts | 139° |
| 2026-05-05 07:28 | 59.05297 | 31.56457 | 33165 ft | 522 kts | 139° |
| 2026-05-05 07:28 | 59.02731 | 31.61476 | 33682 ft | 525 kts | 139° |
| 2026-05-05 07:29 | 59.00146 | 31.66522 | 34104 ft | 529 kts | 139° |
| 2026-05-05 07:29 | 58.97540 | 31.71596 | 34512 ft | 533 kts | 139° |
| 2026-05-05 07:29 | 58.94916 | 31.76698 | 34926 ft | 536 kts | 139° |
| 2026-05-05 07:29 | 58.92277 | 31.81815 | 35410 ft | 537 kts | 139° |
| 2026-05-05 07:30 | 58.89640 | 31.86918 | 35944 ft | 536 kts | 139° |
| 2026-05-05 07:30 | 58.84368 | 31.97078 | 36985 ft | 535 kts | 139° |
| 2026-05-05 07:30 | 58.81732 | 32.02141 | 37476 ft | 534 kts | 139° |
| 2026-05-05 07:31 | 58.79102 | 32.07184 | 37967 ft | 534 kts | 139° |
| 2026-05-05 07:31 | 58.76465 | 32.12226 | 38445 ft | 534 kts | 139° |
| 2026-05-05 07:31 | 58.73859 | 32.17198 | 38808 ft | 534 kts | 139° |
| 2026-05-05 07:31 | 58.71218 | 32.22225 | 39154 ft | 534 kts | 139° |
| 2026-05-05 07:32 | 58.68575 | 32.27247 | 39517 ft | 534 kts | 139° |
| 2026-05-05 07:32 | 58.65931 | 32.32258 | 39864 ft | 534 kts | 139° |
| 2026-05-05 07:32 | 58.63282 | 32.37266 | 40218 ft | 535 kts | 139° |
| 2026-05-05 07:32 | 58.60631 | 32.42269 | 40561 ft | 535 kts | 139° |
| 2026-05-05 07:33 | 58.57977 | 32.47264 | 40803 ft | 537 kts | 139° |
| 2026-05-05 07:33 | 58.55304 | 32.52283 | 40799 ft | 539 kts | 139° |
| 2026-05-05 07:33 | 58.49945 | 32.62318 | 40797 ft | 539 kts | 139° |
| 2026-05-05 07:34 | 58.44585 | 32.72304 | 40803 ft | 539 kts | 139° |
| 2026-05-05 07:34 | 58.39214 | 32.82269 | 40804 ft | 538 kts | 139° |
| 2026-05-05 07:35 | 58.33836 | 32.92201 | 40810 ft | 538 kts | 139° |
| 2026-05-05 07:35 | 58.28451 | 33.02101 | 40811 ft | 538 kts | 139° |
| 2026-05-05 07:36 | 58.23063 | 33.11964 | 40825 ft | 538 kts | 140° |
| 2026-05-05 07:36 | 58.17670 | 33.21791 | 40818 ft | 538 kts | 140° |
| 2026-05-05 07:37 | 58.12271 | 33.31585 | 40812 ft | 537 kts | 140° |
| 2026-05-05 07:37 | 58.06867 | 33.41346 | 40805 ft | 537 kts | 140° |
| 2026-05-05 07:38 | 58.01464 | 33.51063 | 40805 ft | 537 kts | 140° |
| 2026-05-05 07:38 | 57.96050 | 33.60755 | 40808 ft | 537 kts | 140° |
| 2026-05-05 07:39 | 57.90631 | 33.70416 | 40812 ft | 536 kts | 140° |
| 2026-05-05 07:39 | 57.85087 | 33.79757 | 40826 ft | 534 kts | 144° |
| 2026-05-05 07:40 | 57.79283 | 33.88416 | 40813 ft | 534 kts | 145° |
| 2026-05-05 07:40 | 57.73490 | 33.97115 | 40809 ft | 534 kts | 144° |
| 2026-05-05 07:41 | 57.67679 | 34.05757 | 40814 ft | 534 kts | 145° |
| 2026-05-05 07:41 | 57.61904 | 34.14331 | 40815 ft | 534 kts | 145° |
| 2026-05-05 07:42 | 57.56092 | 34.22916 | 40811 ft | 533 kts | 145° |
| 2026-05-05 07:42 | 57.50271 | 34.31479 | 40815 ft | 533 kts | 145° |
| 2026-05-05 07:43 | 57.44446 | 34.40014 | 40816 ft | 533 kts | 145° |
| 2026-05-05 07:43 | 57.38617 | 34.48517 | 40820 ft | 533 kts | 145° |
| 2026-05-05 07:44 | 57.32786 | 34.56989 | 40815 ft | 532 kts | 145° |
| 2026-05-05 07:44 | 57.26955 | 34.65426 | 40815 ft | 532 kts | 145° |
| 2026-05-05 07:45 | 57.21122 | 34.73831 | 40818 ft | 531 kts | 145° |
| 2026-05-05 07:45 | 57.15292 | 34.82196 | 40820 ft | 531 kts | 145° |
| 2026-05-05 07:46 | 57.09459 | 34.90533 | 40817 ft | 531 kts | 146° |
| 2026-05-05 07:46 | 57.03626 | 34.98835 | 40819 ft | 530 kts | 146° |
| 2026-05-05 07:47 | 56.97791 | 35.07105 | 40824 ft | 530 kts | 146° |
| 2026-05-05 07:47 | 56.91962 | 35.15334 | 40822 ft | 529 kts | 146° |
| 2026-05-05 07:48 | 56.86126 | 35.23539 | 40815 ft | 529 kts | 146° |
| 2026-05-05 07:48 | 56.80289 | 35.31713 | 40824 ft | 529 kts | 146° |
| 2026-05-05 07:49 | 56.74448 | 35.39860 | 40822 ft | 529 kts | 146° |
| 2026-05-05 07:49 | 56.68601 | 35.47982 | 40819 ft | 528 kts | 146° |
| 2026-05-05 07:50 | 56.62755 | 35.56071 | 40823 ft | 528 kts | 146° |
| 2026-05-05 07:50 | 56.56897 | 35.64143 | 40830 ft | 528 kts | 146° |
| 2026-05-05 07:51 | 56.51046 | 35.72174 | 40832 ft | 528 kts | 146° |
| 2026-05-05 07:51 | 56.45181 | 35.80193 | 40831 ft | 528 kts | 146° |
| 2026-05-05 07:52 | 56.39310 | 35.88188 | 40849 ft | 528 kts | 146° |
| 2026-05-05 07:52 | 56.33471 | 35.96107 | 40847 ft | 529 kts | 146° |
| 2026-05-05 07:53 | 56.27587 | 36.04057 | 40844 ft | 529 kts | 146° |
| 2026-05-05 07:53 | 56.21699 | 36.11980 | 40843 ft | 528 kts | 146° |
| 2026-05-05 07:54 | 56.15811 | 36.19872 | 40843 ft | 528 kts | 146° |
| 2026-05-05 07:54 | 56.09920 | 36.27738 | 40848 ft | 528 kts | 146° |
| 2026-05-05 07:55 | 56.04018 | 36.35588 | 40848 ft | 528 kts | 146° |
| 2026-05-05 07:55 | 55.98117 | 36.43405 | 40849 ft | 528 kts | 146° |
| 2026-05-05 07:56 | 55.92211 | 36.51199 | 40856 ft | 528 kts | 146° |
| 2026-05-05 07:56 | 55.86306 | 36.58962 | 40851 ft | 528 kts | 146° |
| 2026-05-05 07:57 | 55.80388 | 36.66712 | 40852 ft | 528 kts | 146° |
| 2026-05-05 07:57 | 55.74470 | 36.74431 | 40852 ft | 527 kts | 146° |
| 2026-05-05 07:58 | 55.68549 | 36.82126 | 40851 ft | 528 kts | 146° |
| 2026-05-05 07:58 | 55.62625 | 36.89794 | 40847 ft | 528 kts | 146° |
| 2026-05-05 07:59 | 55.56694 | 36.97441 | 40850 ft | 528 kts | 146° |
| 2026-05-05 07:59 | 55.50758 | 37.05066 | 40849 ft | 528 kts | 146° |
| 2026-05-05 08:00 | 55.44827 | 37.12658 | 40857 ft | 527 kts | 147° |
| 2026-05-05 08:00 | 55.38884 | 37.20233 | 40856 ft | 527 kts | 146° |
| 2026-05-05 08:01 | 55.32937 | 37.27786 | 40864 ft | 527 kts | 147° |
| 2026-05-05 08:01 | 55.26989 | 37.35311 | 40873 ft | 527 kts | 147° |
| 2026-05-05 08:02 | 55.21043 | 37.42806 | 40898 ft | 527 kts | 147° |
| 2026-05-05 08:02 | 55.15129 | 37.50233 | 40897 ft | 526 kts | 147° |
| 2026-05-05 08:03 | 55.09180 | 37.57675 | 40896 ft | 526 kts | 147° |
| 2026-05-05 08:03 | 55.03236 | 37.65084 | 40894 ft | 525 kts | 147° |
| 2026-05-05 08:04 | 54.98292 | 37.71226 | 40890 ft | 525 kts | 147° |
| 2026-05-05 08:04 | 54.91345 | 37.79823 | 40892 ft | 524 kts | 147° |
| 2026-05-05 08:05 | 54.86406 | 37.85913 | 40894 ft | 524 kts | 147° |
| 2026-05-05 08:05 | 54.80456 | 37.93224 | 40895 ft | 524 kts | 147° |
| 2026-05-05 08:06 | 54.74504 | 38.00512 | 40898 ft | 524 kts | 147° |
| 2026-05-05 08:06 | 54.68549 | 38.07776 | 40892 ft | 524 kts | 147° |
| 2026-05-05 08:07 | 54.62594 | 38.15013 | 40896 ft | 524 kts | 147° |
| 2026-05-05 08:07 | 54.56630 | 38.22236 | 40897 ft | 523 kts | 147° |
| 2026-05-05 08:08 | 54.50672 | 38.29424 | 40895 ft | 523 kts | 147° |
| 2026-05-05 08:08 | 54.44707 | 38.36596 | 40896 ft | 523 kts | 147° |
| 2026-05-05 08:09 | 54.38738 | 38.43744 | 40894 ft | 523 kts | 147° |
| 2026-05-05 08:09 | 54.32768 | 38.50870 | 40901 ft | 523 kts | 147° |
| 2026-05-05 08:10 | 54.26798 | 38.57969 | 40898 ft | 522 kts | 147° |
| 2026-05-05 08:10 | 54.20827 | 38.65045 | 40909 ft | 522 kts | 147° |
| 2026-05-05 08:11 | 54.14855 | 38.72096 | 40906 ft | 522 kts | 147° |
| 2026-05-05 08:11 | 54.08885 | 38.79120 | 40903 ft | 522 kts | 147° |
| 2026-05-05 08:12 | 54.02904 | 38.86132 | 40901 ft | 522 kts | 147° |
| 2026-05-05 08:12 | 53.96928 | 38.93112 | 40902 ft | 522 kts | 147° |
| 2026-05-05 08:13 | 53.90943 | 39.00079 | 40900 ft | 521 kts | 147° |
| 2026-05-05 08:13 | 53.84956 | 39.07023 | 40907 ft | 521 kts | 147° |
| 2026-05-05 08:14 | 53.79006 | 39.13902 | 40905 ft | 521 kts | 147° |
| 2026-05-05 08:14 | 53.73014 | 39.20802 | 40904 ft | 521 kts | 147° |
| 2026-05-05 08:15 | 53.67022 | 39.27681 | 40913 ft | 521 kts | 147° |
| 2026-05-05 08:15 | 53.61034 | 39.34529 | 40914 ft | 521 kts | 147° |
| 2026-05-05 08:16 | 53.55037 | 39.41364 | 40912 ft | 520 kts | 147° |
| 2026-05-05 08:16 | 53.49036 | 39.48179 | 40919 ft | 520 kts | 147° |
| 2026-05-05 08:17 | 53.43034 | 39.54974 | 40921 ft | 520 kts | 147° |
| 2026-05-05 08:17 | 53.37028 | 39.61748 | 40926 ft | 520 kts | 147° |
| 2026-05-05 08:18 | 53.31018 | 39.68503 | 40935 ft | 520 kts | 147° |
| 2026-05-05 08:18 | 53.25005 | 39.75239 | 40930 ft | 520 kts | 147° |
| 2026-05-05 08:19 | 53.18990 | 39.81953 | 40933 ft | 520 kts | 147° |
| 2026-05-05 08:19 | 53.12980 | 39.88641 | 40936 ft | 520 kts | 147° |
| 2026-05-05 08:20 | 53.06959 | 39.95315 | 40937 ft | 520 kts | 148° |
| 2026-05-05 08:20 | 53.00936 | 40.01971 | 40940 ft | 520 kts | 148° |
| 2026-05-05 08:21 | 52.94912 | 40.08604 | 40945 ft | 520 kts | 148° |
| 2026-05-05 08:21 | 52.88882 | 40.15221 | 40948 ft | 520 kts | 148° |
| 2026-05-05 08:22 | 52.82848 | 40.21821 | 40951 ft | 520 kts | 148° |
| 2026-05-05 08:22 | 52.76810 | 40.28403 | 40955 ft | 520 kts | 148° |
| 2026-05-05 08:23 | 52.70810 | 40.34921 | 40963 ft | 520 kts | 148° |
| 2026-05-05 08:23 | 52.64765 | 40.41466 | 40964 ft | 520 kts | 148° |
| 2026-05-05 08:24 | 52.58717 | 40.47992 | 40964 ft | 520 kts | 148° |
| 2026-05-05 08:24 | 52.52673 | 40.54493 | 40964 ft | 520 kts | 148° |
| 2026-05-05 08:25 | 52.46620 | 40.60981 | 40969 ft | 520 kts | 148° |
| 2026-05-05 08:25 | 52.40564 | 40.67451 | 40967 ft | 519 kts | 148° |
| 2026-05-05 08:26 | 52.34505 | 40.73902 | 40968 ft | 519 kts | 148° |
| 2026-05-05 08:26 | 52.28444 | 40.80334 | 40973 ft | 519 kts | 148° |
| 2026-05-05 08:27 | 52.22380 | 40.86748 | 40973 ft | 519 kts | 148° |
| 2026-05-05 08:27 | 52.16312 | 40.93147 | 40982 ft | 519 kts | 148° |
| 2026-05-05 08:28 | 52.10240 | 40.99527 | 40978 ft | 519 kts | 148° |
| 2026-05-05 08:28 | 52.04172 | 41.05883 | 40981 ft | 519 kts | 148° |
| 2026-05-05 08:29 | 51.98092 | 41.12228 | 40983 ft | 519 kts | 148° |
| 2026-05-05 08:30 | 51.88966 | 41.21716 | 40988 ft | 519 kts | 148° |
| 2026-05-05 08:30 | 51.82879 | 41.28019 | 40986 ft | 519 kts | 149° |
| 2026-05-05 08:31 | 51.76788 | 41.34305 | 40989 ft | 519 kts | 148° |
| 2026-05-05 08:31 | 51.70695 | 41.40574 | 41001 ft | 519 kts | 149° |
| 2026-05-05 08:32 | 51.64600 | 41.46823 | 40996 ft | 519 kts | 149° |
| 2026-05-05 08:32 | 51.58510 | 41.53048 | 41001 ft | 519 kts | 149° |
| 2026-05-05 08:33 | 51.52412 | 41.59259 | 40998 ft | 519 kts | 149° |
| 2026-05-05 08:33 | 51.46312 | 41.65454 | 41002 ft | 519 kts | 149° |
| 2026-05-05 08:34 | 51.40211 | 41.71629 | 41004 ft | 519 kts | 149° |
| 2026-05-05 08:34 | 51.34109 | 41.77787 | 41007 ft | 518 kts | 149° |
| 2026-05-05 08:35 | 51.28005 | 41.83927 | 41006 ft | 518 kts | 149° |
| 2026-05-05 08:35 | 51.21902 | 41.90045 | 41008 ft | 518 kts | 149° |
| 2026-05-05 08:36 | 51.15793 | 41.96151 | 41004 ft | 518 kts | 149° |
| 2026-05-05 08:36 | 51.09682 | 42.02240 | 41004 ft | 518 kts | 149° |
| 2026-05-05 08:37 | 51.03568 | 42.08312 | 41013 ft | 518 kts | 149° |
| 2026-05-05 08:37 | 50.97450 | 42.14369 | 41014 ft | 518 kts | 149° |
| 2026-05-05 08:38 | 50.91329 | 42.20409 | 41022 ft | 518 kts | 149° |
| 2026-05-05 08:38 | 50.85213 | 42.26426 | 41020 ft | 518 kts | 149° |
| 2026-05-05 08:39 | 50.79089 | 42.32432 | 41026 ft | 518 kts | 149° |
| 2026-05-05 08:39 | 50.72963 | 42.38422 | 41030 ft | 518 kts | 149° |
| 2026-05-05 08:40 | 50.66876 | 42.44355 | 41023 ft | 518 kts | 149° |
| 2026-05-05 08:40 | 50.60746 | 42.50310 | 41021 ft | 518 kts | 149° |
| 2026-05-05 08:41 | 50.54573 | 42.56290 | 41023 ft | 517 kts | 149° |
| 2026-05-05 08:41 | 50.48327 | 42.61903 | 41031 ft | 517 kts | 150° |
| 2026-05-05 08:42 | 50.42129 | 42.67488 | 41029 ft | 517 kts | 151° |
| 2026-05-05 08:42 | 50.35865 | 42.73012 | 41033 ft | 517 kts | 151° |
| 2026-05-05 08:43 | 50.29612 | 42.78577 | 41027 ft | 517 kts | 151° |
| 2026-05-05 08:43 | 50.23345 | 42.84095 | 41025 ft | 517 kts | 151° |
| 2026-05-05 08:44 | 50.17086 | 42.89615 | 41031 ft | 516 kts | 151° |
| 2026-05-05 08:44 | 50.10824 | 42.95107 | 41025 ft | 516 kts | 151° |
| 2026-05-05 08:45 | 50.04565 | 43.00587 | 41015 ft | 516 kts | 151° |
| 2026-05-05 08:45 | 49.98311 | 43.06042 | 41031 ft | 516 kts | 151° |
| 2026-05-05 08:46 | 49.92049 | 43.11489 | 41027 ft | 516 kts | 151° |
| 2026-05-05 08:46 | 49.85790 | 43.16917 | 41027 ft | 515 kts | 151° |
| 2026-05-05 08:47 | 49.79529 | 43.22330 | 41014 ft | 515 kts | 151° |
| 2026-05-05 08:47 | 49.73268 | 43.27728 | 41027 ft | 515 kts | 151° |
| 2026-05-05 08:48 | 49.67007 | 43.33109 | 41022 ft | 515 kts | 151° |
| 2026-05-05 08:48 | 49.60745 | 43.38475 | 41014 ft | 515 kts | 151° |
| 2026-05-05 08:49 | 49.54484 | 43.43824 | 41017 ft | 514 kts | 152° |
| 2026-05-05 08:49 | 49.48229 | 43.49154 | 41024 ft | 514 kts | 152° |
| 2026-05-05 08:50 | 49.43021 | 43.53578 | 41018 ft | 514 kts | 152° |
| 2026-05-05 08:50 | 49.36757 | 43.58885 | 41018 ft | 514 kts | 152° |
| 2026-05-05 08:51 | 49.29481 | 43.65031 | 41004 ft | 514 kts | 152° |
| 2026-05-05 08:51 | 49.23216 | 43.70307 | 41015 ft | 514 kts | 152° |
| 2026-05-05 08:52 | 49.17970 | 43.74711 | 41015 ft | 514 kts | 152° |
| 2026-05-05 08:52 | 49.11740 | 43.79928 | 41015 ft | 514 kts | 152° |
| 2026-05-05 08:53 | 49.05472 | 43.85163 | 41016 ft | 514 kts | 152° |
| 2026-05-05 08:53 | 48.99209 | 43.90377 | 41016 ft | 513 kts | 152° |
| 2026-05-05 08:54 | 48.92940 | 43.95583 | 41012 ft | 513 kts | 152° |
| 2026-05-05 08:54 | 48.86670 | 44.00773 | 41006 ft | 513 kts | 152° |
| 2026-05-05 08:55 | 48.80399 | 44.05949 | 41005 ft | 513 kts | 152° |
| 2026-05-05 08:55 | 48.74128 | 44.11110 | 41013 ft | 513 kts | 152° |
| 2026-05-05 08:56 | 48.67856 | 44.16259 | 41009 ft | 513 kts | 152° |
| 2026-05-05 08:56 | 48.61580 | 44.21395 | 41009 ft | 513 kts | 152° |
| 2026-05-05 08:57 | 48.55307 | 44.26513 | 41013 ft | 513 kts | 152° |
| 2026-05-05 08:57 | 48.49021 | 44.31629 | 41007 ft | 513 kts | 152° |
| 2026-05-05 08:58 | 48.42729 | 44.36735 | 41006 ft | 514 kts | 152° |
| 2026-05-05 08:58 | 48.36431 | 44.41831 | 41003 ft | 514 kts | 152° |
| 2026-05-05 08:59 | 48.30130 | 44.46915 | 40998 ft | 514 kts | 152° |
| 2026-05-05 08:59 | 48.23823 | 44.51990 | 41005 ft | 514 kts | 152° |
| 2026-05-05 09:00 | 48.17510 | 44.57054 | 41002 ft | 515 kts | 152° |
| 2026-05-05 09:00 | 48.11190 | 44.62111 | 41003 ft | 515 kts | 152° |
| 2026-05-05 09:01 | 48.04870 | 44.67153 | 40996 ft | 515 kts | 152° |
| 2026-05-05 09:01 | 47.98537 | 44.72192 | 40999 ft | 516 kts | 152° |
| 2026-05-05 09:02 | 47.92197 | 44.77221 | 41005 ft | 516 kts | 152° |
| 2026-05-05 09:02 | 47.85851 | 44.82242 | 40998 ft | 516 kts | 152° |
| 2026-05-05 09:03 | 47.79556 | 44.87208 | 41002 ft | 516 kts | 152° |
| 2026-05-05 09:03 | 47.73214 | 44.92198 | 40996 ft | 516 kts | 152° |
| 2026-05-05 09:04 | 47.66874 | 44.97172 | 40996 ft | 515 kts | 152° |
| 2026-05-05 09:04 | 47.60537 | 45.02131 | 40997 ft | 515 kts | 152° |
| 2026-05-05 09:05 | 47.54202 | 45.07074 | 40996 ft | 514 kts | 152° |
| 2026-05-05 09:05 | 47.47868 | 45.12002 | 40995 ft | 514 kts | 152° |
| 2026-05-05 09:06 | 47.41532 | 45.16919 | 40995 ft | 514 kts | 153° |
| 2026-05-05 09:06 | 47.35200 | 45.21818 | 40991 ft | 514 kts | 153° |
| 2026-05-05 09:07 | 47.28855 | 45.26715 | 40991 ft | 515 kts | 153° |
| 2026-05-05 09:07 | 47.22505 | 45.31603 | 40989 ft | 515 kts | 153° |
| 2026-05-05 09:08 | 47.16149 | 45.36481 | 40987 ft | 515 kts | 153° |
| 2026-05-05 09:08 | 47.09792 | 45.41347 | 40981 ft | 515 kts | 153° |
| 2026-05-05 09:09 | 47.03433 | 45.46202 | 40975 ft | 515 kts | 153° |
| 2026-05-05 09:09 | 46.97072 | 45.51045 | 40969 ft | 515 kts | 153° |
| 2026-05-05 09:10 | 46.90720 | 45.55868 | 40973 ft | 515 kts | 153° |
| 2026-05-05 09:10 | 46.84360 | 45.60684 | 40972 ft | 515 kts | 153° |
| 2026-05-05 09:11 | 46.78043 | 45.65455 | 40965 ft | 515 kts | 153° |
| 2026-05-05 09:11 | 46.71682 | 45.70246 | 40962 ft | 514 kts | 154° |
| 2026-05-05 09:12 | 46.65319 | 45.75026 | 40960 ft | 515 kts | 154° |
| 2026-05-05 09:12 | 46.58950 | 45.79797 | 40953 ft | 515 kts | 154° |
| 2026-05-05 09:13 | 46.52576 | 45.84560 | 40952 ft | 515 kts | 154° |
| 2026-05-05 09:13 | 46.46205 | 45.89308 | 40951 ft | 515 kts | 154° |
| 2026-05-05 09:14 | 46.39823 | 45.94051 | 40946 ft | 515 kts | 154° |
| 2026-05-05 09:14 | 46.33438 | 45.98784 | 40947 ft | 515 kts | 154° |
| 2026-05-05 09:15 | 46.27051 | 46.03507 | 40951 ft | 516 kts | 154° |
| 2026-05-05 09:15 | 46.20662 | 46.08218 | 40946 ft | 515 kts | 154° |
| 2026-05-05 09:16 | 46.14279 | 46.12912 | 40943 ft | 514 kts | 154° |
| 2026-05-05 09:16 | 46.07905 | 46.17588 | 40943 ft | 514 kts | 155° |
| 2026-05-05 09:17 | 46.01539 | 46.22245 | 40944 ft | 513 kts | 155° |
| 2026-05-05 09:17 | 45.95187 | 46.26880 | 40945 ft | 512 kts | 155° |
| 2026-05-05 09:18 | 45.88835 | 46.31504 | 40947 ft | 511 kts | 155° |
| 2026-05-05 09:18 | 45.82486 | 46.36113 | 40945 ft | 511 kts | 155° |
| 2026-05-05 09:19 | 45.76151 | 46.40700 | 40950 ft | 510 kts | 155° |
| 2026-05-05 09:19 | 45.69802 | 46.45285 | 40949 ft | 511 kts | 155° |
| 2026-05-05 09:20 | 45.63506 | 46.49821 | 40948 ft | 511 kts | 155° |
| 2026-05-05 09:20 | 45.57159 | 46.54382 | 40952 ft | 511 kts | 155° |
| 2026-05-05 09:21 | 45.50805 | 46.58936 | 40949 ft | 511 kts | 155° |
| 2026-05-05 09:21 | 45.44440 | 46.63487 | 40950 ft | 512 kts | 155° |
| 2026-05-05 09:22 | 45.38065 | 46.68033 | 40950 ft | 513 kts | 155° |
| 2026-05-05 09:22 | 45.31678 | 46.72576 | 40953 ft | 513 kts | 155° |
| 2026-05-05 09:23 | 45.25291 | 46.77108 | 40958 ft | 514 kts | 155° |
| 2026-05-05 09:23 | 45.18890 | 46.81638 | 40955 ft | 514 kts | 155° |
| 2026-05-05 09:24 | 45.12482 | 46.86161 | 40946 ft | 515 kts | 155° |
| 2026-05-05 09:24 | 45.06071 | 46.90676 | 40941 ft | 515 kts | 155° |
| 2026-05-05 09:25 | 44.99659 | 46.95179 | 40940 ft | 514 kts | 155° |
| 2026-05-05 09:25 | 44.93248 | 46.99671 | 40938 ft | 514 kts | 156° |
| 2026-05-05 09:26 | 44.86837 | 47.04152 | 40936 ft | 514 kts | 156° |
| 2026-05-05 09:26 | 44.80426 | 47.08621 | 40935 ft | 514 kts | 156° |
| 2026-05-05 09:27 | 44.74023 | 47.13073 | 40931 ft | 514 kts | 156° |
| 2026-05-05 09:27 | 44.67615 | 47.17518 | 40932 ft | 513 kts | 156° |
| 2026-05-05 09:28 | 44.61252 | 47.21921 | 40932 ft | 513 kts | 156° |
| 2026-05-05 09:28 | 44.54852 | 47.26339 | 40929 ft | 512 kts | 156° |
| 2026-05-05 09:29 | 44.48456 | 47.30743 | 40924 ft | 512 kts | 156° |
| 2026-05-05 09:29 | 44.42067 | 47.35131 | 40923 ft | 511 kts | 156° |
| 2026-05-05 09:30 | 44.35689 | 47.39501 | 40924 ft | 511 kts | 157° |
| 2026-05-05 09:30 | 44.29309 | 47.43862 | 40923 ft | 510 kts | 157° |
| 2026-05-05 09:31 | 44.22932 | 47.48210 | 40924 ft | 510 kts | 157° |
| 2026-05-05 09:31 | 44.16558 | 47.52546 | 40918 ft | 510 kts | 157° |
| 2026-05-05 09:32 | 44.10187 | 47.56868 | 40915 ft | 509 kts | 157° |
| 2026-05-05 09:32 | 44.03814 | 47.61182 | 40916 ft | 509 kts | 157° |
| 2026-05-05 09:33 | 43.97439 | 47.65487 | 40918 ft | 509 kts | 157° |
| 2026-05-05 09:33 | 43.91062 | 47.69783 | 40914 ft | 509 kts | 157° |
| 2026-05-05 09:34 | 43.84683 | 47.74070 | 40915 ft | 509 kts | 158° |
| 2026-05-05 09:34 | 43.78302 | 47.78348 | 40909 ft | 509 kts | 158° |
| 2026-05-05 09:35 | 43.71963 | 47.82589 | 40910 ft | 509 kts | 158° |
| 2026-05-05 09:35 | 43.62353 | 47.88998 | 40905 ft | 509 kts | 158° |
| 2026-05-05 09:36 | 43.56012 | 47.93213 | 40912 ft | 509 kts | 158° |
| 2026-05-05 09:36 | 43.49626 | 47.97449 | 40911 ft | 509 kts | 158° |
| 2026-05-05 09:37 | 43.43252 | 48.01668 | 40909 ft | 509 kts | 158° |
| 2026-05-05 09:37 | 43.36871 | 48.05881 | 40915 ft | 509 kts | 158° |
| 2026-05-05 09:38 | 43.30488 | 48.10085 | 40912 ft | 509 kts | 158° |
| 2026-05-05 09:38 | 43.24103 | 48.14281 | 40910 ft | 509 kts | 158° |
| 2026-05-05 09:39 | 43.17717 | 48.18468 | 40917 ft | 509 kts | 158° |
| 2026-05-05 09:39 | 43.11329 | 48.22646 | 40913 ft | 509 kts | 158° |
| 2026-05-05 09:40 | 43.04940 | 48.26816 | 40912 ft | 509 kts | 159° |
| 2026-05-05 09:40 | 42.99633 | 48.30271 | 40912 ft | 509 kts | 159° |
| 2026-05-05 09:41 | 42.93241 | 48.34424 | 40916 ft | 509 kts | 159° |
| 2026-05-05 09:41 | 42.86849 | 48.38568 | 40913 ft | 508 kts | 159° |
| 2026-05-05 09:42 | 42.80457 | 48.42703 | 40924 ft | 508 kts | 159° |
| 2026-05-05 09:42 | 42.74063 | 48.46829 | 40920 ft | 508 kts | 159° |
| 2026-05-05 09:43 | 42.67667 | 48.50947 | 40915 ft | 509 kts | 159° |
| 2026-05-05 09:43 | 42.61268 | 48.55058 | 40912 ft | 509 kts | 159° |
| 2026-05-05 09:44 | 42.54874 | 48.59156 | 40916 ft | 509 kts | 159° |
| 2026-05-05 09:44 | 42.48470 | 48.63250 | 40923 ft | 509 kts | 159° |
| 2026-05-05 09:45 | 42.42112 | 48.67307 | 40921 ft | 509 kts | 159° |
| 2026-05-05 09:45 | 42.35707 | 48.71384 | 40919 ft | 509 kts | 159° |
| 2026-05-05 09:46 | 42.29303 | 48.75451 | 40921 ft | 508 kts | 160° |
| 2026-05-05 09:46 | 42.22901 | 48.79509 | 40920 ft | 508 kts | 160° |
| 2026-05-05 09:47 | 42.16500 | 48.83555 | 40925 ft | 508 kts | 160° |
| 2026-05-05 09:47 | 42.10102 | 48.87592 | 40926 ft | 507 kts | 160° |
| 2026-05-05 09:48 | 42.03707 | 48.91618 | 40922 ft | 507 kts | 160° |
| 2026-05-05 09:48 | 41.97231 | 48.95266 | 40933 ft | 505 kts | 162° |
| 2026-05-05 09:49 | 41.90739 | 48.98866 | 40929 ft | 504 kts | 162° |
| 2026-05-05 09:49 | 41.84249 | 49.02443 | 40922 ft | 504 kts | 162° |
| 2026-05-05 09:50 | 41.77768 | 49.06015 | 40922 ft | 503 kts | 162° |
| 2026-05-05 09:50 | 41.71290 | 49.09574 | 40920 ft | 503 kts | 163° |
| 2026-05-05 09:51 | 41.64817 | 49.13123 | 40917 ft | 502 kts | 163° |
| 2026-05-05 09:51 | 41.58350 | 49.16661 | 40919 ft | 502 kts | 163° |
| 2026-05-05 09:52 | 41.51887 | 49.20190 | 40925 ft | 502 kts | 163° |
| 2026-05-05 09:52 | 41.45471 | 49.23685 | 40922 ft | 501 kts | 163° |
| 2026-05-05 09:53 | 41.38979 | 49.27214 | 40920 ft | 501 kts | 163° |
| 2026-05-05 09:53 | 41.32524 | 49.30716 | 40919 ft | 501 kts | 163° |
| 2026-05-05 09:54 | 41.26069 | 49.34209 | 40921 ft | 501 kts | 163° |
| 2026-05-05 09:54 | 41.19615 | 49.37695 | 40916 ft | 501 kts | 163° |
| 2026-05-05 09:55 | 41.13204 | 49.41150 | 40916 ft | 500 kts | 163° |
| 2026-05-05 09:55 | 41.06750 | 49.44622 | 40916 ft | 500 kts | 163° |
| 2026-05-05 09:56 | 41.00296 | 49.48085 | 40916 ft | 500 kts | 163° |
| 2026-05-05 09:56 | 40.93849 | 49.51538 | 40920 ft | 500 kts | 164° |
| 2026-05-05 09:57 | 40.87385 | 49.54992 | 40912 ft | 501 kts | 164° |
| 2026-05-05 09:57 | 40.80918 | 49.58441 | 40906 ft | 501 kts | 164° |
| 2026-05-05 09:58 | 40.74454 | 49.61881 | 40901 ft | 502 kts | 164° |
| 2026-05-05 09:58 | 40.67975 | 49.65321 | 40902 ft | 502 kts | 164° |
| 2026-05-05 09:59 | 40.61496 | 49.68755 | 40902 ft | 502 kts | 164° |
| 2026-05-05 09:59 | 40.55013 | 49.72183 | 40902 ft | 502 kts | 164° |
| 2026-05-05 10:00 | 40.48531 | 49.75603 | 40902 ft | 503 kts | 164° |
| 2026-05-05 10:00 | 40.42038 | 49.79023 | 40902 ft | 503 kts | 164° |
| 2026-05-05 10:01 | 40.35540 | 49.82438 | 40903 ft | 503 kts | 164° |
| 2026-05-05 10:01 | 40.29035 | 49.85849 | 40904 ft | 503 kts | 164° |
| 2026-05-05 10:02 | 40.22529 | 49.89254 | 40914 ft | 503 kts | 164° |
| 2026-05-05 10:02 | 40.16021 | 49.92653 | 40911 ft | 503 kts | 164° |
| 2026-05-05 10:03 | 40.09513 | 49.96044 | 40907 ft | 503 kts | 164° |
| 2026-05-05 10:03 | 40.03009 | 49.99427 | 40916 ft | 503 kts | 164° |
| 2026-05-05 10:04 | 39.96501 | 50.02804 | 40920 ft | 503 kts | 164° |
| 2026-05-05 10:04 | 39.89994 | 50.06176 | 40922 ft | 503 kts | 164° |
| 2026-05-05 10:05 | 39.83532 | 50.09516 | 40924 ft | 503 kts | 165° |
| 2026-05-05 10:05 | 39.77032 | 50.12868 | 40923 ft | 503 kts | 165° |
| 2026-05-05 10:06 | 39.70524 | 50.16219 | 40926 ft | 503 kts | 165° |
| 2026-05-05 10:06 | 39.64012 | 50.19564 | 40930 ft | 503 kts | 165° |
| 2026-05-05 10:07 | 39.57497 | 50.22905 | 40925 ft | 503 kts | 165° |
| 2026-05-05 10:07 | 39.50981 | 50.26238 | 40926 ft | 503 kts | 165° |
| 2026-05-05 10:08 | 39.44465 | 50.29566 | 40932 ft | 503 kts | 165° |
| 2026-05-05 10:08 | 39.37947 | 50.32887 | 40931 ft | 503 kts | 165° |
| 2026-05-05 10:09 | 39.31430 | 50.36202 | 40930 ft | 503 kts | 165° |
| 2026-05-05 10:09 | 39.24918 | 50.39507 | 40932 ft | 503 kts | 165° |
| 2026-05-05 10:10 | 39.18394 | 50.42811 | 40943 ft | 504 kts | 165° |
| 2026-05-05 10:10 | 39.11865 | 50.46112 | 40932 ft | 504 kts | 165° |
| 2026-05-05 10:11 | 39.05345 | 50.49402 | 40931 ft | 504 kts | 166° |
| 2026-05-05 10:11 | 38.98814 | 50.52690 | 40932 ft | 504 kts | 166° |
| 2026-05-05 10:12 | 38.92282 | 50.55973 | 40928 ft | 504 kts | 166° |
| 2026-05-05 10:12 | 38.85748 | 50.59250 | 40930 ft | 504 kts | 166° |
| 2026-05-05 10:13 | 38.79214 | 50.62521 | 40925 ft | 504 kts | 166° |
| 2026-05-05 10:13 | 38.72681 | 50.65784 | 40925 ft | 504 kts | 166° |
| 2026-05-05 10:14 | 38.66153 | 50.69039 | 40921 ft | 503 kts | 166° |
| 2026-05-05 10:14 | 38.59636 | 50.72282 | 40914 ft | 503 kts | 166° |
| 2026-05-05 10:15 | 38.53117 | 50.75519 | 40915 ft | 503 kts | 166° |
| 2026-05-05 10:15 | 38.46597 | 50.78751 | 40911 ft | 502 kts | 166° |
| 2026-05-05 10:16 | 38.40080 | 50.81975 | 40907 ft | 502 kts | 167° |
| 2026-05-05 10:16 | 38.33564 | 50.85192 | 40908 ft | 502 kts | 167° |
| 2026-05-05 10:17 | 38.27094 | 50.88380 | 40909 ft | 502 kts | 167° |
| 2026-05-05 10:17 | 38.20584 | 50.91582 | 40907 ft | 502 kts | 167° |
| 2026-05-05 10:18 | 38.14076 | 50.94777 | 40905 ft | 502 kts | 167° |
| 2026-05-05 10:18 | 38.07562 | 50.97969 | 40907 ft | 502 kts | 167° |
| 2026-05-05 10:19 | 38.01044 | 51.01155 | 40906 ft | 502 kts | 168° |
| 2026-05-05 10:19 | 37.94426 | 51.03664 | 40925 ft | 496 kts | 172° |
| 2026-05-05 10:20 | 37.87792 | 51.06057 | 40916 ft | 496 kts | 172° |
| 2026-05-05 10:20 | 37.81143 | 51.08434 | 40912 ft | 497 kts | 172° |
| 2026-05-05 10:21 | 37.74489 | 51.10818 | 40909 ft | 497 kts | 173° |
| 2026-05-05 10:21 | 37.67831 | 51.13194 | 40906 ft | 497 kts | 173° |
| 2026-05-05 10:22 | 37.61170 | 51.15568 | 40906 ft | 497 kts | 173° |
| 2026-05-05 10:22 | 37.54510 | 51.17937 | 40911 ft | 497 kts | 173° |
| 2026-05-05 10:23 | 37.47851 | 51.20302 | 40907 ft | 497 kts | 173° |
| 2026-05-05 10:23 | 37.41192 | 51.22662 | 40900 ft | 497 kts | 173° |
| 2026-05-05 10:24 | 37.34543 | 51.25014 | 40904 ft | 497 kts | 173° |
| 2026-05-05 10:24 | 37.27887 | 51.27364 | 40906 ft | 497 kts | 173° |
| 2026-05-05 10:25 | 37.21227 | 51.29711 | 40904 ft | 497 kts | 173° |
| 2026-05-05 10:25 | 37.14563 | 51.32056 | 40901 ft | 497 kts | 173° |
| 2026-05-05 10:26 | 37.07942 | 51.34381 | 40906 ft | 497 kts | 173° |
| 2026-05-05 10:26 | 37.01278 | 51.36717 | 40904 ft | 497 kts | 173° |
| 2026-05-05 10:27 | 36.94615 | 51.39049 | 40909 ft | 497 kts | 173° |
| 2026-05-05 10:27 | 36.87954 | 51.41375 | 40912 ft | 497 kts | 173° |
| 2026-05-05 10:28 | 36.82366 | 51.43323 | 40914 ft | 497 kts | 173° |
| 2026-05-05 10:28 | 36.74619 | 51.46020 | 40905 ft | 497 kts | 173° |
| 2026-05-05 10:29 | 36.69036 | 51.47959 | 40904 ft | 498 kts | 173° |
| 2026-05-05 10:29 | 36.62363 | 51.50274 | 40907 ft | 498 kts | 173° |
| 2026-05-05 10:30 | 36.55686 | 51.52586 | 40913 ft | 498 kts | 174° |
| 2026-05-05 10:30 | 36.49010 | 51.54893 | 40936 ft | 498 kts | 173° |
| 2026-05-05 10:31 | 36.42326 | 51.57198 | 40955 ft | 499 kts | 173° |
| 2026-05-05 10:31 | 36.35642 | 51.59501 | 40986 ft | 497 kts | 173° |
| 2026-05-05 10:32 | 36.29028 | 51.61776 | 41040 ft | 495 kts | 173° |
| 2026-05-05 10:32 | 36.22294 | 51.64082 | 41050 ft | 501 kts | 173° |
| 2026-05-05 10:33 | 36.15615 | 51.66374 | 41063 ft | 503 kts | 174° |
| 2026-05-05 10:33 | 36.08874 | 51.68677 | 41076 ft | 502 kts | 173° |
| 2026-05-05 10:34 | 36.02158 | 51.70972 | 41077 ft | 503 kts | 174° |
| 2026-05-05 10:34 | 35.95405 | 51.73270 | 41083 ft | 505 kts | 173° |
| 2026-05-05 10:35 | 35.88634 | 51.75575 | 41073 ft | 505 kts | 174° |
| 2026-05-05 10:35 | 35.81868 | 51.77871 | 41077 ft | 504 kts | 174° |
| 2026-05-05 10:36 | 35.75098 | 51.80166 | 41062 ft | 504 kts | 174° |
| 2026-05-05 10:36 | 35.68338 | 51.82453 | 41040 ft | 504 kts | 174° |
| 2026-05-05 10:37 | 35.61588 | 51.84734 | 41017 ft | 502 kts | 174° |
| 2026-05-05 10:37 | 35.54842 | 51.87006 | 40996 ft | 503 kts | 174° |
| 2026-05-05 10:38 | 35.48094 | 51.89278 | 40978 ft | 503 kts | 174° |
| 2026-05-05 10:38 | 35.41396 | 51.91528 | 40955 ft | 502 kts | 174° |
| 2026-05-05 10:39 | 35.34662 | 51.93786 | 40946 ft | 502 kts | 174° |
| 2026-05-05 10:39 | 35.27918 | 51.96044 | 40936 ft | 502 kts | 174° |
| 2026-05-05 10:40 | 35.21173 | 51.98298 | 40929 ft | 502 kts | 174° |
| 2026-05-05 10:40 | 35.14421 | 52.00551 | 40919 ft | 503 kts | 174° |
| 2026-05-05 10:41 | 35.07664 | 52.02802 | 40910 ft | 503 kts | 174° |
| 2026-05-05 10:41 | 35.00901 | 52.05050 | 40914 ft | 504 kts | 174° |
| 2026-05-05 10:42 | 34.90749 | 52.08419 | 40907 ft | 504 kts | 174° |
| 2026-05-05 10:43 | 34.83978 | 52.10661 | 40908 ft | 504 kts | 174° |
| 2026-05-05 10:43 | 34.77214 | 52.12896 | 40917 ft | 504 kts | 174° |
| 2026-05-05 10:44 | 34.70436 | 52.15132 | 40908 ft | 504 kts | 174° |
| 2026-05-05 10:44 | 34.63656 | 52.17366 | 40908 ft | 505 kts | 175° |
| 2026-05-05 10:45 | 34.56874 | 52.19595 | 40912 ft | 505 kts | 175° |
| 2026-05-05 10:45 | 34.50098 | 52.21821 | 40912 ft | 505 kts | 175° |
| 2026-05-05 10:46 | 34.43313 | 52.24044 | 40914 ft | 505 kts | 175° |
| 2026-05-05 10:46 | 34.36571 | 52.26249 | 40927 ft | 505 kts | 175° |
| 2026-05-05 10:47 | 34.29778 | 52.28469 | 40933 ft | 506 kts | 175° |
| 2026-05-05 10:47 | 34.22984 | 52.30684 | 40937 ft | 506 kts | 175° |
| 2026-05-05 10:48 | 34.16190 | 52.32896 | 40945 ft | 506 kts | 175° |
| 2026-05-05 10:48 | 34.09398 | 52.35103 | 40947 ft | 506 kts | 175° |
| 2026-05-05 10:49 | 34.02584 | 52.37314 | 40964 ft | 507 kts | 175° |
| 2026-05-05 10:49 | 33.95781 | 52.39518 | 40962 ft | 507 kts | 175° |
| 2026-05-05 10:50 | 33.88968 | 52.41721 | 40968 ft | 507 kts | 175° |
| 2026-05-05 10:50 | 33.82156 | 52.43920 | 40972 ft | 507 kts | 175° |
| 2026-05-05 10:51 | 33.75344 | 52.46116 | 40973 ft | 507 kts | 175° |
| 2026-05-05 10:51 | 33.68526 | 52.48310 | 40972 ft | 507 kts | 175° |
| 2026-05-05 10:52 | 33.61702 | 52.50502 | 40977 ft | 508 kts | 175° |
| 2026-05-05 10:52 | 33.54879 | 52.52690 | 40980 ft | 508 kts | 175° |
| 2026-05-05 10:53 | 33.48047 | 52.54878 | 40992 ft | 508 kts | 175° |
| 2026-05-05 10:53 | 33.41213 | 52.57063 | 41004 ft | 508 kts | 175° |
| 2026-05-05 10:54 | 33.34425 | 52.59229 | 41019 ft | 508 kts | 175° |
| 2026-05-05 10:54 | 33.27590 | 52.61407 | 41036 ft | 508 kts | 175° |
| 2026-05-05 10:55 | 33.20753 | 52.63582 | 41058 ft | 508 kts | 175° |
| 2026-05-05 10:55 | 33.13921 | 52.65752 | 41076 ft | 508 kts | 175° |
| 2026-05-05 10:56 | 33.07070 | 52.67924 | 41083 ft | 509 kts | 175° |
| 2026-05-05 10:56 | 33.00226 | 52.70091 | 41091 ft | 510 kts | 175° |
| 2026-05-05 10:57 | 32.93370 | 52.72259 | 41104 ft | 510 kts | 175° |
| 2026-05-05 10:57 | 32.86513 | 52.74422 | 41111 ft | 510 kts | 175° |
| 2026-05-05 10:58 | 32.79652 | 52.76584 | 41109 ft | 510 kts | 175° |
| 2026-05-05 10:58 | 32.72780 | 52.78745 | 41109 ft | 511 kts | 175° |
| 2026-05-05 10:59 | 32.65905 | 52.80905 | 41094 ft | 511 kts | 175° |
| 2026-05-05 10:59 | 32.59030 | 52.83060 | 41098 ft | 512 kts | 175° |
| 2026-05-05 11:00 | 32.52146 | 52.85216 | 41085 ft | 512 kts | 175° |
| 2026-05-05 11:00 | 32.45258 | 52.87369 | 41082 ft | 512 kts | 175° |
| 2026-05-05 11:01 | 32.38365 | 52.89520 | 41072 ft | 512 kts | 175° |
| 2026-05-05 11:01 | 32.31469 | 52.91669 | 41063 ft | 512 kts | 175° |
| 2026-05-05 11:02 | 32.24579 | 52.93812 | 41053 ft | 513 kts | 175° |
| 2026-05-05 11:02 | 32.17674 | 52.95956 | 41049 ft | 513 kts | 175° |
| 2026-05-05 11:03 | 32.10809 | 52.98086 | 41039 ft | 514 kts | 175° |
| 2026-05-05 11:03 | 32.03855 | 53.00239 | 41039 ft | 514 kts | 175° |
| 2026-05-05 11:04 | 31.96984 | 53.02364 | 41033 ft | 514 kts | 175° |
| 2026-05-05 11:04 | 31.90066 | 53.04499 | 41030 ft | 514 kts | 175° |
| 2026-05-05 11:05 | 31.83151 | 53.06630 | 41014 ft | 514 kts | 175° |
| 2026-05-05 11:05 | 31.76237 | 53.08757 | 41014 ft | 514 kts | 175° |
| 2026-05-05 11:06 | 31.69319 | 53.10883 | 41001 ft | 514 kts | 175° |
| 2026-05-05 11:06 | 31.62403 | 53.13005 | 40988 ft | 514 kts | 175° |
| 2026-05-05 11:07 | 31.55487 | 53.15123 | 40985 ft | 514 kts | 175° |
| 2026-05-05 11:07 | 31.48581 | 53.17235 | 40986 ft | 513 kts | 175° |
| 2026-05-05 11:08 | 31.41670 | 53.19345 | 40987 ft | 513 kts | 175° |
| 2026-05-05 11:08 | 31.34760 | 53.21452 | 40991 ft | 513 kts | 175° |
| 2026-05-05 11:09 | 31.27848 | 53.23556 | 40988 ft | 513 kts | 175° |
| 2026-05-05 11:09 | 31.20934 | 53.25658 | 40998 ft | 513 kts | 175° |
| 2026-05-05 11:10 | 31.14021 | 53.27756 | 40999 ft | 513 kts | 175° |
| 2026-05-05 11:10 | 31.07105 | 53.29852 | 41008 ft | 513 kts | 175° |
| 2026-05-05 11:11 | 31.00242 | 53.31929 | 41017 ft | 514 kts | 175° |
| 2026-05-05 11:11 | 30.93325 | 53.34019 | 41033 ft | 513 kts | 175° |
| 2026-05-05 11:12 | 30.86408 | 53.36106 | 41047 ft | 513 kts | 175° |
| 2026-05-05 11:12 | 30.79496 | 53.38188 | 41067 ft | 513 kts | 175° |
| 2026-05-05 11:13 | 30.72579 | 53.40269 | 41075 ft | 514 kts | 175° |
| 2026-05-05 11:13 | 30.65653 | 53.42349 | 41087 ft | 514 kts | 175° |
| 2026-05-05 11:14 | 30.58728 | 53.44426 | 41110 ft | 515 kts | 175° |
| 2026-05-05 11:14 | 30.51801 | 53.46501 | 41113 ft | 514 kts | 175° |
| 2026-05-05 11:15 | 30.44914 | 53.48561 | 41113 ft | 511 kts | 175° |
| 2026-05-05 11:15 | 30.38027 | 53.50615 | 41121 ft | 511 kts | 175° |
| 2026-05-05 11:16 | 30.31135 | 53.52672 | 41127 ft | 511 kts | 175° |
| 2026-05-05 11:16 | 30.24252 | 53.54720 | 41123 ft | 511 kts | 175° |
| 2026-05-05 11:17 | 30.17362 | 53.56769 | 41123 ft | 511 kts | 175° |
| 2026-05-05 11:17 | 30.10472 | 53.58814 | 41119 ft | 511 kts | 175° |
| 2026-05-05 11:18 | 30.04745 | 53.60512 | 41120 ft | 511 kts | 175° |
| 2026-05-05 11:18 | 29.97856 | 53.62552 | 41112 ft | 511 kts | 175° |
| 2026-05-05 11:19 | 29.90971 | 53.64588 | 41100 ft | 511 kts | 175° |
| 2026-05-05 11:19 | 29.84080 | 53.66621 | 41097 ft | 511 kts | 175° |
| 2026-05-05 11:20 | 29.77184 | 53.68656 | 41089 ft | 512 kts | 175° |
| 2026-05-05 11:20 | 29.70287 | 53.70685 | 41081 ft | 511 kts | 175° |
| 2026-05-05 11:21 | 29.63390 | 53.72713 | 41081 ft | 512 kts | 175° |
| 2026-05-05 11:21 | 29.56496 | 53.74737 | 41072 ft | 511 kts | 175° |
| 2026-05-05 11:22 | 29.49595 | 53.76760 | 41073 ft | 512 kts | 175° |
| 2026-05-05 11:22 | 29.42693 | 53.78780 | 41072 ft | 512 kts | 175° |
| 2026-05-05 11:23 | 29.35790 | 53.80798 | 41070 ft | 512 kts | 175° |
| 2026-05-05 11:23 | 29.28874 | 53.82817 | 41072 ft | 513 kts | 175° |
| 2026-05-05 11:24 | 29.21963 | 53.84832 | 41081 ft | 513 kts | 174° |
| 2026-05-05 11:24 | 29.15047 | 53.86846 | 41064 ft | 513 kts | 174° |
| 2026-05-05 11:25 | 29.08128 | 53.88856 | 41070 ft | 513 kts | 174° |
| 2026-05-05 11:25 | 29.01207 | 53.90866 | 41067 ft | 513 kts | 174° |
| 2026-05-05 11:26 | 28.94280 | 53.92874 | 41060 ft | 513 kts | 174° |
| 2026-05-05 11:26 | 28.87355 | 53.94879 | 41057 ft | 513 kts | 174° |
| 2026-05-05 11:27 | 28.80431 | 53.96880 | 41059 ft | 513 kts | 174° |
| 2026-05-05 11:27 | 28.73501 | 53.98881 | 41038 ft | 514 kts | 174° |
| 2026-05-05 11:28 | 28.66573 | 54.00878 | 41013 ft | 514 kts | 174° |
| 2026-05-05 11:28 | 28.59633 | 54.02877 | 41000 ft | 515 kts | 174° |
| 2026-05-05 11:29 | 28.52687 | 54.04874 | 40985 ft | 515 kts | 174° |
| 2026-05-05 11:29 | 28.45783 | 54.06856 | 40974 ft | 515 kts | 174° |
| 2026-05-05 11:30 | 28.38829 | 54.08850 | 40966 ft | 515 kts | 174° |
| 2026-05-05 11:30 | 28.31872 | 54.10843 | 40960 ft | 515 kts | 174° |
| 2026-05-05 11:31 | 28.24912 | 54.12833 | 40952 ft | 516 kts | 174° |
| 2026-05-05 11:31 | 28.17950 | 54.14821 | 40942 ft | 516 kts | 174° |
| 2026-05-05 11:32 | 28.10990 | 54.16806 | 40920 ft | 517 kts | 174° |
| 2026-05-05 11:32 | 28.04019 | 54.18792 | 40918 ft | 517 kts | 174° |
| 2026-05-05 11:33 | 27.97048 | 54.20775 | 40900 ft | 516 kts | 174° |
| 2026-05-05 11:33 | 27.90070 | 54.22756 | 40880 ft | 517 kts | 173° |
| 2026-05-05 11:34 | 27.83095 | 54.24736 | 40873 ft | 517 kts | 173° |
| 2026-05-05 11:34 | 27.76116 | 54.26712 | 40871 ft | 517 kts | 173° |
| 2026-05-05 11:35 | 27.69140 | 54.28686 | 40873 ft | 517 kts | 173° |
| 2026-05-05 11:35 | 27.62161 | 54.30658 | 40870 ft | 517 kts | 173° |
| 2026-05-05 11:36 | 27.55192 | 54.32625 | 40867 ft | 517 kts | 173° |
| 2026-05-05 11:36 | 27.48209 | 54.34593 | 40885 ft | 517 kts | 173° |
| 2026-05-05 11:37 | 27.41212 | 54.36563 | 40866 ft | 518 kts | 173° |
| 2026-05-05 11:37 | 27.34218 | 54.38528 | 40847 ft | 518 kts | 173° |
| 2026-05-05 11:38 | 27.27216 | 54.40493 | 40852 ft | 519 kts | 173° |
| 2026-05-05 11:38 | 27.20219 | 54.42457 | 40845 ft | 516 kts | 173° |
| 2026-05-05 11:39 | 27.13302 | 54.44395 | 40833 ft | 509 kts | 173° |
| 2026-05-05 11:39 | 27.06465 | 54.46304 | 40832 ft | 505 kts | 173° |
| 2026-05-05 11:40 | 26.99652 | 54.48207 | 40824 ft | 504 kts | 173° |
| 2026-05-05 11:40 | 26.96230 | 54.49160 | 40511 ft | 511 kts | 173° |
| 2026-05-05 11:40 | 26.92806 | 54.50111 | 39813 ft | 515 kts | 173° |
| 2026-05-05 11:40 | 26.89332 | 54.51084 | 39145 ft | 515 kts | 173° |
| 2026-05-05 11:41 | 26.85856 | 54.52056 | 38462 ft | 515 kts | 173° |
| 2026-05-05 11:41 | 26.82378 | 54.53021 | 37746 ft | 514 kts | 173° |
| 2026-05-05 11:41 | 26.78916 | 54.53983 | 37068 ft | 512 kts | 173° |
| 2026-05-05 11:41 | 26.75467 | 54.54943 | 36391 ft | 510 kts | 173° |
| 2026-05-05 11:42 | 26.72032 | 54.55898 | 35716 ft | 507 kts | 173° |
| 2026-05-05 11:42 | 26.68611 | 54.56847 | 35037 ft | 505 kts | 173° |
| 2026-05-05 11:42 | 26.65204 | 54.57792 | 34352 ft | 503 kts | 173° |
| 2026-05-05 11:42 | 26.61773 | 54.58744 | 33656 ft | 502 kts | 173° |
| 2026-05-05 11:43 | 26.58441 | 54.59667 | 32959 ft | 498 kts | 172° |
| 2026-05-05 11:43 | 26.55093 | 54.60595 | 32282 ft | 494 kts | 172° |
| 2026-05-05 11:43 | 26.51771 | 54.61515 | 31605 ft | 490 kts | 172° |
| 2026-05-05 11:43 | 26.48474 | 54.62425 | 30936 ft | 486 kts | 172° |
| 2026-05-05 11:44 | 26.45204 | 54.63330 | 30266 ft | 482 kts | 172° |
| 2026-05-05 11:44 | 26.41957 | 54.64227 | 29558 ft | 479 kts | 172° |
| 2026-05-05 11:44 | 26.38744 | 54.65114 | 28890 ft | 473 kts | 171° |
| 2026-05-05 11:44 | 26.35572 | 54.65990 | 28211 ft | 466 kts | 171° |
| 2026-05-05 11:45 | 26.32440 | 54.66853 | 27542 ft | 461 kts | 171° |
| 2026-05-05 11:45 | 26.29344 | 54.67706 | 26891 ft | 456 kts | 170° |
| 2026-05-05 11:45 | 26.26284 | 54.68549 | 26236 ft | 450 kts | 170° |
| 2026-05-05 11:45 | 26.23259 | 54.69382 | 25595 ft | 445 kts | 169° |
| 2026-05-05 11:46 | 26.20266 | 54.70206 | 24944 ft | 441 kts | 169° |
| 2026-05-05 11:46 | 26.17310 | 54.71019 | 24297 ft | 436 kts | 169° |
| 2026-05-05 11:46 | 26.14369 | 54.71827 | 23656 ft | 432 kts | 168° |
| 2026-05-05 11:46 | 26.11468 | 54.72624 | 22961 ft | 428 kts | 168° |
| 2026-05-05 11:47 | 26.08598 | 54.73414 | 22314 ft | 421 kts | 168° |
| 2026-05-05 11:47 | 26.05773 | 54.74190 | 21682 ft | 415 kts | 168° |
| 2026-05-05 11:47 | 26.02991 | 54.74952 | 21050 ft | 409 kts | 168° |
| 2026-05-05 11:47 | 26.00249 | 54.75704 | 20425 ft | 403 kts | 168° |
| 2026-05-05 11:48 | 25.94870 | 54.77178 | 19176 ft | 393 kts | 167° |
| 2026-05-05 11:48 | 25.92229 | 54.77901 | 18557 ft | 389 kts | 167° |
| 2026-05-05 11:48 | 25.89615 | 54.78617 | 17911 ft | 385 kts | 167° |
| 2026-05-05 11:49 | 25.87032 | 54.79324 | 17263 ft | 379 kts | 167° |
| 2026-05-05 11:49 | 25.84489 | 54.80019 | 16645 ft | 374 kts | 167° |
| 2026-05-05 11:49 | 25.81983 | 54.80704 | 16027 ft | 368 kts | 166° |
| 2026-05-05 11:49 | 25.79510 | 54.81380 | 15410 ft | 364 kts | 166° |
| 2026-05-05 11:50 | 25.77066 | 54.82047 | 14797 ft | 360 kts | 166° |
| 2026-05-05 11:50 | 25.74647 | 54.82708 | 14176 ft | 356 kts | 166° |
| 2026-05-05 11:50 | 25.72256 | 54.83360 | 13575 ft | 353 kts | 166° |
| 2026-05-05 11:50 | 25.69880 | 54.84008 | 12906 ft | 349 kts | 166° |
| 2026-05-05 11:51 | 25.67594 | 54.84631 | 12551 ft | 337 kts | 166° |
| 2026-05-05 11:51 | 25.65330 | 54.85248 | 12269 ft | 323 kts | 166° |
| 2026-05-05 11:51 | 25.63247 | 54.85853 | 12140 ft | 305 kts | 159° |
| 2026-05-05 11:51 | 25.61486 | 54.86996 | 11966 ft | 288 kts | 135° |
| 2026-05-05 11:52 | 25.60340 | 54.88729 | 11886 ft | 275 kts | 114° |
| 2026-05-05 11:52 | 25.59417 | 54.90609 | 11891 ft | 281 kts | 122° |
| 2026-05-05 11:52 | 25.58316 | 54.92399 | 11893 ft | 282 kts | 123° |
| 2026-05-05 11:52 | 25.57241 | 54.94221 | 11896 ft | 282 kts | 121° |
| 2026-05-05 11:53 | 25.56221 | 54.96079 | 11896 ft | 282 kts | 120° |
| 2026-05-05 11:53 | 25.55205 | 54.97927 | 11888 ft | 275 kts | 121° |
| 2026-05-05 11:53 | 25.54190 | 54.99731 | 11880 ft | 277 kts | 121° |
| 2026-05-05 11:53 | 25.53158 | 55.01559 | 11874 ft | 280 kts | 121° |
| 2026-05-05 11:54 | 25.52133 | 55.03386 | 11622 ft | 279 kts | 121° |
| 2026-05-05 11:54 | 25.51113 | 55.05206 | 11202 ft | 277 kts | 121° |
| 2026-05-05 11:54 | 25.50113 | 55.06988 | 10789 ft | 275 kts | 121° |
| 2026-05-05 11:54 | 25.49105 | 55.08781 | 10362 ft | 273 kts | 121° |
| 2026-05-05 11:55 | 25.48105 | 55.10560 | 9957 ft | 271 kts | 121° |
| 2026-05-05 11:55 | 25.47111 | 55.12326 | 9550 ft | 269 kts | 121° |
| 2026-05-05 11:55 | 25.46124 | 55.14083 | 9080 ft | 268 kts | 121° |
| 2026-05-05 11:55 | 25.45142 | 55.15827 | 8857 ft | 258 kts | 121° |
| 2026-05-05 11:56 | 25.44217 | 55.17470 | 8705 ft | 253 kts | 121° |
| 2026-05-05 11:56 | 25.43283 | 55.19129 | 8576 ft | 254 kts | 121° |
| 2026-05-05 11:56 | 25.42351 | 55.20785 | 8458 ft | 254 kts | 121° |
| 2026-05-05 11:56 | 25.41417 | 55.22442 | 8334 ft | 254 kts | 121° |
| 2026-05-05 11:57 | 25.40487 | 55.24092 | 8210 ft | 250 kts | 121° |
| 2026-05-05 11:57 | 25.39554 | 55.25746 | 7747 ft | 252 kts | 121° |
| 2026-05-05 11:57 | 25.38651 | 55.27347 | 7745 ft | 244 kts | 121° |
| 2026-05-05 11:57 | 25.37745 | 55.28953 | 7743 ft | 247 kts | 121° |
| 2026-05-05 11:58 | 25.36834 | 55.30567 | 7745 ft | 248 kts | 121° |
| 2026-05-05 11:58 | 25.35921 | 55.32184 | 7748 ft | 248 kts | 122° |
| 2026-05-05 11:58 | 25.35010 | 55.33804 | 7751 ft | 248 kts | 121° |
| 2026-05-05 11:58 | 25.34105 | 55.35438 | 7560 ft | 249 kts | 121° |
| 2026-05-05 11:59 | 25.33197 | 55.37077 | 7147 ft | 251 kts | 121° |
| 2026-05-05 11:59 | 25.32281 | 55.38723 | 6763 ft | 251 kts | 121° |
| 2026-05-05 11:59 | 25.31369 | 55.40359 | 6393 ft | 249 kts | 121° |
| 2026-05-05 11:59 | 25.30462 | 55.41989 | 6036 ft | 248 kts | 122° |
| 2026-05-05 12:00 | 25.29559 | 55.43609 | 5648 ft | 247 kts | 121° |
| 2026-05-05 12:00 | 25.28660 | 55.45221 | 5271 ft | 246 kts | 121° |
| 2026-05-05 12:00 | 25.27765 | 55.46830 | 4890 ft | 246 kts | 121° |
| 2026-05-05 12:00 | 25.26866 | 55.48442 | 4454 ft | 247 kts | 121° |
| 2026-05-05 12:01 | 25.25979 | 55.50032 | 3973 ft | 236 kts | 120° |
| 2026-05-05 12:01 | 25.25140 | 55.51540 | 3474 ft | 226 kts | 120° |
| 2026-05-05 12:01 | 25.24333 | 55.52990 | 2996 ft | 217 kts | 120° |
| 2026-05-05 12:01 | 25.23570 | 55.54360 | 2584 ft | 207 kts | 118° |
| 2026-05-05 12:02 | 25.22829 | 55.55696 | 2205 ft | 200 kts | 119° |
| 2026-05-05 12:02 | 25.22119 | 55.56974 | 1961 ft | 191 kts | 118° |
| 2026-05-05 12:02 | 25.21409 | 55.58251 | 1983 ft | 199 kts | 119° |
| 2026-05-05 12:02 | 25.20639 | 55.59515 | 1980 ft | 199 kts | 131° |
| 2026-05-05 12:03 | 25.19416 | 55.60212 | 2027 ft | 207 kts | 168° |
| 2026-05-05 12:03 | 25.18016 | 55.60003 | 2005 ft | 200 kts | 206° |
| 2026-05-05 12:03 | 25.16927 | 55.59076 | 2038 ft | 201 kts | 222° |
| 2026-05-05 12:03 | 25.15908 | 55.58041 | 2009 ft | 198 kts | 223° |
| 2026-05-05 12:04 | 25.14999 | 55.56939 | 1961 ft | 193 kts | 245° |
| 2026-05-05 12:04 | 25.14785 | 55.56016 | 1989 ft | 182 kts | 271° |
| 2026-05-05 12:04 | 25.15277 | 55.54398 | 2002 ft | 166 kts | 306° |
| 2026-05-05 12:04 | 25.15678 | 55.53709 | 2006 ft | 158 kts | 306° |
| 2026-05-05 12:05 | 25.16263 | 55.52705 | 2001 ft | 156 kts | 308° |
| 2026-05-05 12:05 | 25.16822 | 55.51718 | 1991 ft | 151 kts | 306° |
| 2026-05-05 12:05 | 25.17383 | 55.50713 | 1984 ft | 153 kts | 304° |
| 2026-05-05 12:05 | 25.17934 | 55.49713 | 1968 ft | 152 kts | 307° |
| 2026-05-05 12:06 | 25.18495 | 55.48717 | 1827 ft | 151 kts | 305° |
| 2026-05-05 12:06 | 25.19021 | 55.47732 | 1641 ft | 150 kts | 305° |
| 2026-05-05 12:06 | 25.19575 | 55.46754 | 1481 ft | 150 kts | 306° |
| 2026-05-05 12:06 | 25.20115 | 55.45764 | 1290 ft | 150 kts | 304° |
| 2026-05-05 12:07 | 25.20658 | 55.44779 | 1104 ft | 149 kts | 305° |
| 2026-05-05 12:07 | 25.21202 | 55.43798 | 927 ft | 151 kts | 304° |
| 2026-05-05 12:07 | 25.21748 | 55.42819 | 760 ft | 147 kts | 304° |
| 2026-05-05 12:07 | 25.22268 | 55.41875 | 586 ft | 141 kts | 304° |
| 2026-05-05 12:08 | 25.22775 | 55.40957 | 401 ft | 139 kts | 304° |
| 2026-05-05 12:08 | 25.23280 | 55.40044 | 226 ft | 139 kts | 304° |
| 2026-05-05 12:08 | 25.23782 | 55.39133 | 61 ft | 137 kts | 304° |
| 2026-05-05 12:08 | 25.24259 | 55.38280 | 24 ft | 112 kts | 302° |
| 2026-05-05 12:09 | 25.24520 | 55.37804 | 20 ft | 37 kts | 300° |
| 2026-05-05 12:09 | 25.24593 | 55.37607 | 18 ft | 24 kts | 283° |
| 2026-05-05 12:09 | 25.24604 | 55.37448 | 21 ft | 12 kts | 251° |
| 2026-05-05 12:09 | 25.24582 | 55.37418 | 21 ft | 5 kts | 215° |
| 2026-05-05 12:10 | 25.24539 | 55.37387 | 18 ft | 12 kts | 212° |
| 2026-05-05 12:10 | 25.24448 | 55.37326 | 20 ft | 16 kts | 210° |
| 2026-05-05 12:10 | 25.24386 | 55.37287 | 20 ft | 0 kts | 210° |